sensor_id;sensor_type;location;lat;lon;timestamp;pressure;altitude;pressure_sealevel;temperature;humidity
78800;BME280;68148;55.328;86.106;2023-11-19T00:01:57;96910.25;;;9.59;74.90
78800;BME280;68148;55.328;86.106;2023-11-19T00:04:22;96914.38;;;9.50;75.83
78800;BME280;68148;55.328;86.106;2023-11-19T00:06:50;96910.41;;;9.47;75.80
78800;BME280;68148;55.328;86.106;2023-11-19T00:09:19;96912.19;;;9.42;76.43
78800;BME280;68148;55.328;86.106;2023-11-19T00:11:50;96900.56;;;9.38;77.73
78800;BME280;68148;55.328;86.106;2023-11-19T00:14:16;96912.03;;;9.26;79.20
78800;BME280;68148;55.328;86.106;2023-11-19T00:16:42;96917.78;;;9.23;79.91
78800;BME280;68148;55.328;86.106;2023-11-19T00:19:07;96923.38;;;9.05;82.53
78800;BME280;68148;55.328;86.106;2023-11-19T00:21:34;96935.69;;;8.99;84.89
78800;BME280;68148;55.328;86.106;2023-11-19T00:24:00;96910.03;;;8.90;85.54
78800;BME280;68148;55.328;86.106;2023-11-19T00:26:31;96909.97;;;8.63;86.80
78800;BME280;68148;55.328;86.106;2023-11-19T00:28:57;96862.09;;;8.61;86.58
78800;BME280;68148;55.328;86.106;2023-11-19T00:31:22;96898.44;;;8.47;87.31
78800;BME280;68148;55.328;86.106;2023-11-19T00:33:48;96902.69;;;8.31;87.68
78800;BME280;68148;55.328;86.106;2023-11-19T00:36:21;96903.69;;;8.30;86.85
78800;BME280;68148;55.328;86.106;2023-11-19T00:38:47;96923.38;;;8.27;87.17
78800;BME280;68148;55.328;86.106;2023-11-19T00:41:13;96911.03;;;8.11;88.70
78800;BME280;68148;55.328;86.106;2023-11-19T00:43:40;96924.66;;;8.08;89.25
78800;BME280;68148;55.328;86.106;2023-11-19T00:46:07;96936.19;;;8.07;89.69
78800;BME280;68148;55.328;86.106;2023-11-19T00:48:33;96955.94;;;7.93;91.12
78800;BME280;68148;55.328;86.106;2023-11-19T00:50:59;96955.28;;;7.86;91.58
78800;BME280;68148;55.328;86.106;2023-11-19T00:53:25;96969.59;;;7.78;93.73
78800;BME280;68148;55.328;86.106;2023-11-19T00:55:51;96940.47;;;7.63;91.74
78800;BME280;68148;55.328;86.106;2023-11-19T00:58:17;96927.59;;;7.33;91.08
78800;BME280;68148;55.328;86.106;2023-11-19T01:00:43;96947.91;;;7.25;90.99
78800;BME280;68148;55.328;86.106;2023-11-19T01:03:09;96956.00;;;7.24;91.42
78800;BME280;68148;55.328;86.106;2023-11-19T01:05:35;96956.81;;;7.24;90.34
78800;BME280;68148;55.328;86.106;2023-11-19T01:08:08;96954.94;;;7.37;88.84
78800;BME280;68148;55.328;86.106;2023-11-19T01:10:36;96974.53;;;7.46;87.46
78800;BME280;68148;55.328;86.106;2023-11-19T01:13:04;96969.00;;;7.59;85.10
78800;BME280;68148;55.328;86.106;2023-11-19T01:15:30;96997.72;;;7.66;85.37
78800;BME280;68148;55.328;86.106;2023-11-19T01:17:56;96980.13;;;7.66;81.94
78800;BME280;68148;55.328;86.106;2023-11-19T01:20:23;96971.72;;;7.64;80.72
78800;BME280;68148;55.328;86.106;2023-11-19T01:22:49;96985.16;;;7.68;78.76
78800;BME280;68148;55.328;86.106;2023-11-19T01:25:15;97014.06;;;7.56;80.01
78800;BME280;68148;55.328;86.106;2023-11-19T01:27:41;97042.78;;;7.34;81.74
78800;BME280;68148;55.328;86.106;2023-11-19T01:30:07;97093.78;;;7.03;84.25
78800;BME280;68148;55.328;86.106;2023-11-19T01:32:33;97111.63;;;6.71;86.91
78800;BME280;68148;55.328;86.106;2023-11-19T01:41:03;97176.56;;;5.53;86.85
78800;BME280;68148;55.328;86.106;2023-11-19T01:43:39;97200.91;;;5.36;86.80
78800;BME280;68148;55.328;86.106;2023-11-19T01:46:06;97197.31;;;5.30;86.27
78800;BME280;68148;55.328;86.106;2023-11-19T01:48:34;97210.75;;;5.09;85.56
78800;BME280;68148;55.328;86.106;2023-11-19T01:51:00;97226.91;;;4.99;86.72
78800;BME280;68148;55.328;86.106;2023-11-19T01:53:27;97194.69;;;4.80;88.50
78800;BME280;68148;55.328;86.106;2023-11-19T01:55:53;97226.25;;;4.78;87.53
78800;BME280;68148;55.328;86.106;2023-11-19T01:58:19;97260.91;;;4.67;89.13
78800;BME280;68148;55.328;86.106;2023-11-19T02:00:54;97204.47;;;4.60;89.73
78800;BME280;68148;55.328;86.106;2023-11-19T02:03:21;97253.31;;;4.52;90.47
78800;BME280;68148;55.328;86.106;2023-11-19T02:05:48;97291.13;;;4.43;90.88
78800;BME280;68148;55.328;86.106;2023-11-19T02:08:14;97221.59;;;4.49;88.39
78800;BME280;68148;55.328;86.106;2023-11-19T02:10:40;97248.91;;;4.53;86.30
78800;BME280;68148;55.328;86.106;2023-11-19T02:13:06;97262.72;;;4.60;85.06
78800;BME280;68148;55.328;86.106;2023-11-19T02:15:33;97245.84;;;4.63;84.11
78800;BME280;68148;55.328;86.106;2023-11-19T02:18:24;97275.41;;;4.57;85.12
78800;BME280;68148;55.328;86.106;2023-11-19T02:20:50;97288.22;;;4.65;85.43
78800;BME280;68148;55.328;86.106;2023-11-19T02:23:18;97287.03;;;4.61;85.29
78800;BME280;68148;55.328;86.106;2023-11-19T02:26:01;97272.16;;;4.61;84.90
78800;BME280;68148;55.328;86.106;2023-11-19T02:28:28;97295.50;;;4.63;84.87
78800;BME280;68148;55.328;86.106;2023-11-19T02:30:53;97289.66;;;4.61;85.11
78800;BME280;68148;55.328;86.106;2023-11-19T02:33:19;97314.34;;;4.65;84.74
78800;BME280;68148;55.328;86.106;2023-11-19T02:35:45;97301.50;;;4.63;84.90
78800;BME280;68148;55.328;86.106;2023-11-19T02:38:12;97300.66;;;4.69;84.34
78800;BME280;68148;55.328;86.106;2023-11-19T02:40:37;97319.56;;;4.65;84.78
78800;BME280;68148;55.328;86.106;2023-11-19T02:43:03;97329.63;;;4.61;85.17
78800;BME280;68148;55.328;86.106;2023-11-19T02:45:29;97335.25;;;4.58;85.09
78800;BME280;68148;55.328;86.106;2023-11-19T02:47:55;97335.25;;;4.58;84.86
78800;BME280;68148;55.328;86.106;2023-11-19T02:50:21;97324.06;;;4.51;83.76
78800;BME280;68148;55.328;86.106;2023-11-19T02:52:47;97355.81;;;4.48;84.49
78800;BME280;68148;55.328;86.106;2023-11-19T02:55:13;97345.75;;;4.45;84.21
78800;BME280;68148;55.328;86.106;2023-11-19T02:57:39;97353.81;;;4.37;83.62
78800;BME280;68148;55.328;86.106;2023-11-19T03:00:06;97382.16;;;4.33;83.58
78800;BME280;68148;55.328;86.106;2023-11-19T03:02:32;97369.47;;;4.37;83.28
78800;BME280;68148;55.328;86.106;2023-11-19T03:04:58;97391.44;;;4.16;83.17
78800;BME280;68148;55.328;86.106;2023-11-19T03:07:23;97408.09;;;4.21;83.98
78800;BME280;68148;55.328;86.106;2023-11-19T03:09:49;97364.50;;;4.15;83.41
78800;BME280;68148;55.328;86.106;2023-11-19T03:12:17;97394.03;;;4.09;82.34
78800;BME280;68148;55.328;86.106;2023-11-19T03:14:42;97409.69;;;3.96;81.67
78800;BME280;68148;55.328;86.106;2023-11-19T03:17:08;97396.84;;;3.88;81.59
78800;BME280;68148;55.328;86.106;2023-11-19T03:19:34;97433.38;;;3.81;81.66
78800;BME280;68148;55.328;86.106;2023-11-19T03:22:01;97443.59;;;3.76;83.01
78800;BME280;68148;55.328;86.106;2023-11-19T03:24:27;97451.03;;;3.79;83.59
78800;BME280;68148;55.328;86.106;2023-11-19T03:26:53;97451.44;;;3.76;83.29
78800;BME280;68148;55.328;86.106;2023-11-19T03:29:19;97451.44;;;3.69;83.35
78800;BME280;68148;55.328;86.106;2023-11-19T03:31:44;97488.16;;;3.74;84.38
78800;BME280;68148;55.328;86.106;2023-11-19T03:34:10;97474.31;;;3.74;84.41
78800;BME280;68148;55.328;86.106;2023-11-19T03:36:36;97491.72;;;3.54;85.53
78800;BME280;68148;55.328;86.106;2023-11-19T03:39:02;97503.56;;;3.56;86.24
78800;BME280;68148;55.328;86.106;2023-11-19T03:41:29;97512.16;;;3.50;87.13
78800;BME280;68148;55.328;86.106;2023-11-19T03:43:56;97526.00;;;3.44;86.89
78800;BME280;68148;55.328;86.106;2023-11-19T03:46:24;97542.63;;;3.43;88.28
78800;BME280;68148;55.328;86.106;2023-11-19T03:48:50;97558.84;;;3.38;88.78
78800;BME280;68148;55.328;86.106;2023-11-19T03:51:16;97564.63;;;3.27;88.52
78800;BME280;68148;55.328;86.106;2023-11-19T03:53:46;97567.03;;;3.29;88.67
78800;BME280;68148;55.328;86.106;2023-11-19T03:56:15;97580.22;;;3.20;88.61
78800;BME280;68148;55.328;86.106;2023-11-19T03:58:41;97596.25;;;3.17;88.86
78800;BME280;68148;55.328;86.106;2023-11-19T04:01:13;97577.59;;;3.14;89.17
78800;BME280;68148;55.328;86.106;2023-11-19T04:03:39;97599.66;;;3.18;88.97
78800;BME280;68148;55.328;86.106;2023-11-19T04:06:05;97604.88;;;3.18;89.88
78800;BME280;68148;55.328;86.106;2023-11-19T04:08:31;97622.34;;;3.24;89.51
78800;BME280;68148;55.328;86.106;2023-11-19T04:10:57;97596.81;;;3.13;88.65
78800;BME280;68148;55.328;86.106;2023-11-19T04:13:22;97623.91;;;3.18;88.20
78800;BME280;68148;55.328;86.106;2023-11-19T04:15:50;97621.72;;;3.22;89.37
78800;BME280;68148;55.328;86.106;2023-11-19T04:18:16;97622.91;;;3.19;88.76
78800;BME280;68148;55.328;86.106;2023-11-19T04:20:42;97647.94;;;3.14;88.52
78800;BME280;68148;55.328;86.106;2023-11-19T04:23:08;97652.16;;;3.15;88.24
78800;BME280;68148;55.328;86.106;2023-11-19T04:25:35;97668.03;;;3.20;88.66
78800;BME280;68148;55.328;86.106;2023-11-19T04:28:01;97653.19;;;3.20;88.52
78800;BME280;68148;55.328;86.106;2023-11-19T04:30:27;97663.91;;;3.32;88.01
78800;BME280;68148;55.328;86.106;2023-11-19T04:32:52;97669.91;;;3.33;88.30
78800;BME280;68148;55.328;86.106;2023-11-19T04:35:18;97666.03;;;3.22;87.60
78800;BME280;68148;55.328;86.106;2023-11-19T04:37:47;97687.72;;;3.29;88.08
78800;BME280;68148;55.328;86.106;2023-11-19T04:40:13;97698.41;;;3.34;88.25
78800;BME280;68148;55.328;86.106;2023-11-19T04:42:39;97694.38;;;3.32;88.32
78800;BME280;68148;55.328;86.106;2023-11-19T04:45:06;97717.94;;;3.45;88.12
78800;BME280;68148;55.328;86.106;2023-11-19T04:47:32;97727.09;;;3.34;88.94
78800;BME280;68148;55.328;86.106;2023-11-19T04:49:57;97708.34;;;3.24;89.16
78800;BME280;68148;55.328;86.106;2023-11-19T04:52:23;97742.66;;;3.28;90.26
78800;BME280;68148;55.328;86.106;2023-11-19T04:54:49;97745.22;;;3.21;90.66
78800;BME280;68148;55.328;86.106;2023-11-19T04:57:15;97747.66;;;3.22;92.07
78800;BME280;68148;55.328;86.106;2023-11-19T04:59:40;97763.22;;;3.16;91.97
78800;BME280;68148;55.328;86.106;2023-11-19T05:02:06;97770.78;;;3.11;92.50
78800;BME280;68148;55.328;86.106;2023-11-19T05:04:33;97780.41;;;3.10;92.81
78800;BME280;68148;55.328;86.106;2023-11-19T05:06:59;97788.72;;;2.99;93.52
78800;BME280;68148;55.328;86.106;2023-11-19T05:09:25;97805.03;;;2.86;93.67
78800;BME280;68148;55.328;86.106;2023-11-19T05:11:50;97823.25;;;2.86;93.56
78800;BME280;68148;55.328;86.106;2023-11-19T05:14:16;97818.91;;;2.72;94.51
78800;BME280;68148;55.328;86.106;2023-11-19T05:16:42;97829.06;;;2.52;95.85
78800;BME280;68148;55.328;86.106;2023-11-19T05:19:09;97813.38;;;2.45;96.59
78800;BME280;68148;55.328;86.106;2023-11-19T05:21:35;97829.56;;;2.41;96.53
78800;BME280;68148;55.328;86.106;2023-11-19T05:24:01;97837.91;;;2.36;97.35
78800;BME280;68148;55.328;86.106;2023-11-19T05:26:27;97836.47;;;2.34;97.53
78800;BME280;68148;55.328;86.106;2023-11-19T05:28:52;97832.00;;;2.28;97.77
78800;BME280;68148;55.328;86.106;2023-11-19T05:31:18;97845.63;;;2.30;98.00
78800;BME280;68148;55.328;86.106;2023-11-19T05:33:44;97847.31;;;2.37;98.25
78800;BME280;68148;55.328;86.106;2023-11-19T05:36:11;97856.38;;;2.41;97.89
78800;BME280;68148;55.328;86.106;2023-11-19T05:38:37;97871.09;;;2.34;98.21
78800;BME280;68148;55.328;86.106;2023-11-19T05:41:06;97866.25;;;2.31;97.83
78800;BME280;68148;55.328;86.106;2023-11-19T05:43:33;97886.34;;;2.22;98.61
78800;BME280;68148;55.328;86.106;2023-11-19T05:45:58;97898.41;;;2.23;98.32
78800;BME280;68148;55.328;86.106;2023-11-19T05:48:26;97888.88;;;2.16;98.72
78800;BME280;68148;55.328;86.106;2023-11-19T05:50:52;97912.81;;;2.11;99.04
78800;BME280;68148;55.328;86.106;2023-11-19T05:53:17;97914.34;;;2.06;99.20
78800;BME280;68148;55.328;86.106;2023-11-19T05:55:43;97925.19;;;2.09;99.70
78800;BME280;68148;55.328;86.106;2023-11-19T05:58:09;97924.56;;;2.07;99.99
78800;BME280;68148;55.328;86.106;2023-11-19T06:00:35;97932.66;;;2.12;99.28
78800;BME280;68148;55.328;86.106;2023-11-19T06:03:01;97947.28;;;2.13;99.39
78800;BME280;68148;55.328;86.106;2023-11-19T06:05:27;97971.16;;;2.17;99.40
78800;BME280;68148;55.328;86.106;2023-11-19T06:07:52;97984.34;;;2.15;100.00
78800;BME280;68148;55.328;86.106;2023-11-19T06:10:18;98005.69;;;2.11;99.99
78800;BME280;68148;55.328;86.106;2023-11-19T06:12:44;98012.78;;;2.17;99.41
78800;BME280;68148;55.328;86.106;2023-11-19T06:15:10;98018.78;;;2.17;100.00
78800;BME280;68148;55.328;86.106;2023-11-19T06:17:36;98038.81;;;2.17;99.96
78800;BME280;68148;55.328;86.106;2023-11-19T06:20:01;98044.53;;;2.12;99.96
78800;BME280;68148;55.328;86.106;2023-11-19T06:22:27;98083.03;;;2.17;100.00
78800;BME280;68148;55.328;86.106;2023-11-19T06:24:54;98086.22;;;2.04;100.00
78800;BME280;68148;55.328;86.106;2023-11-19T06:27:19;98118.13;;;1.98;100.00
78800;BME280;68148;55.328;86.106;2023-11-19T06:29:45;98109.94;;;2.09;99.72
78800;BME280;68148;55.328;86.106;2023-11-19T06:32:11;98168.97;;;2.09;100.00
78800;BME280;68148;55.328;86.106;2023-11-19T06:34:36;98111.50;;;2.18;100.00
78800;BME280;68148;55.328;86.106;2023-11-19T06:37:02;98206.56;;;2.06;99.61
78800;BME280;68148;55.328;86.106;2023-11-19T06:39:28;98237.53;;;1.85;100.00
78800;BME280;68148;55.328;86.106;2023-11-19T06:41:54;98279.16;;;1.77;100.00
78800;BME280;68148;55.328;86.106;2023-11-19T06:44:20;98266.19;;;1.68;100.00
78800;BME280;68148;55.328;86.106;2023-11-19T06:46:45;98279.38;;;1.59;100.00
78800;BME280;68148;55.328;86.106;2023-11-19T06:49:11;98322.09;;;1.32;100.00
78800;BME280;68148;55.328;86.106;2023-11-19T06:51:41;98350.16;;;1.20;100.00
78800;BME280;68148;55.328;86.106;2023-11-19T06:54:07;98387.63;;;0.93;100.00
78800;BME280;68148;55.328;86.106;2023-11-19T06:56:33;98386.25;;;0.64;100.00
78800;BME280;68148;55.328;86.106;2023-11-19T06:58:59;98428.94;;;0.36;100.00
78800;BME280;68148;55.328;86.106;2023-11-19T07:01:24;98391.28;;;0.06;100.00
78800;BME280;68148;55.328;86.106;2023-11-19T07:03:50;98474.78;;;-0.09;100.00
78800;BME280;68148;55.328;86.106;2023-11-19T07:06:16;98394.16;;;-0.23;100.00
78800;BME280;68148;55.328;86.106;2023-11-19T07:08:42;98500.00;;;-0.37;100.00
78800;BME280;68148;55.328;86.106;2023-11-19T07:11:08;98527.00;;;-0.39;100.00
78800;BME280;68148;55.328;86.106;2023-11-19T07:13:33;98559.63;;;-0.37;100.00
78800;BME280;68148;55.328;86.106;2023-11-19T07:15:59;98589.53;;;-0.42;100.00
78800;BME280;68148;55.328;86.106;2023-11-19T07:18:25;98580.41;;;-0.46;100.00
78800;BME280;68148;55.328;86.106;2023-11-19T07:20:51;98629.41;;;-0.53;100.00
78800;BME280;68148;55.328;86.106;2023-11-19T07:23:16;98634.34;;;-0.60;100.00
78800;BME280;68148;55.328;86.106;2023-11-19T07:25:43;98681.69;;;-0.67;100.00
78800;BME280;68148;55.328;86.106;2023-11-19T07:28:09;98721.91;;;-0.63;100.00
78800;BME280;68148;55.328;86.106;2023-11-19T07:30:35;98735.63;;;-0.53;100.00
78800;BME280;68148;55.328;86.106;2023-11-19T07:33:00;98723.59;;;-0.44;100.00
78800;BME280;68148;55.328;86.106;2023-11-19T07:35:27;98778.47;;;-0.49;100.00
78800;BME280;68148;55.328;86.106;2023-11-19T07:37:55;98758.97;;;-0.53;100.00
78800;BME280;68148;55.328;86.106;2023-11-19T07:40:24;98784.34;;;-0.47;100.00
78800;BME280;68148;55.328;86.106;2023-11-19T07:42:51;98815.41;;;-0.57;100.00
78800;BME280;68148;55.328;86.106;2023-11-19T07:45:17;98821.84;;;-0.70;100.00
78800;BME280;68148;55.328;86.106;2023-11-19T07:47:44;98853.47;;;-0.57;100.00
78800;BME280;68148;55.328;86.106;2023-11-19T07:50:10;98867.38;;;-0.78;100.00
78800;BME280;68148;55.328;86.106;2023-11-19T07:52:37;98849.94;;;-0.76;100.00
78800;BME280;68148;55.328;86.106;2023-11-19T07:55:06;98879.78;;;-0.91;100.00
78800;BME280;68148;55.328;86.106;2023-11-19T07:57:32;98896.16;;;-0.81;100.00
78800;BME280;68148;55.328;86.106;2023-11-19T08:00:00;98918.34;;;-0.97;100.00
78800;BME280;68148;55.328;86.106;2023-11-19T08:02:32;98949.53;;;-0.99;100.00
78800;BME280;68148;55.328;86.106;2023-11-19T08:05:01;98946.69;;;-1.06;100.00
78800;BME280;68148;55.328;86.106;2023-11-19T08:07:26;98980.38;;;-1.27;100.00
78800;BME280;68148;55.328;86.106;2023-11-19T08:09:52;98969.81;;;-1.14;100.00
78800;BME280;68148;55.328;86.106;2023-11-19T08:12:18;98983.41;;;-1.21;99.58
78800;BME280;68148;55.328;86.106;2023-11-19T08:14:43;99011.75;;;-1.20;99.84
78800;BME280;68148;55.328;86.106;2023-11-19T08:17:10;99004.28;;;-1.13;97.65
78800;BME280;68148;55.328;86.106;2023-11-19T08:19:35;99047.06;;;-1.19;96.38
78800;BME280;68148;55.328;86.106;2023-11-19T08:22:01;99037.38;;;-1.17;94.23
78800;BME280;68148;55.328;86.106;2023-11-19T08:24:27;99061.63;;;-1.18;94.27
78800;BME280;68148;55.328;86.106;2023-11-19T08:26:53;99094.03;;;-1.23;94.36
78800;BME280;68148;55.328;86.106;2023-11-19T08:29:19;99058.59;;;-1.23;91.23
78800;BME280;68148;55.328;86.106;2023-11-19T08:31:44;99123.00;;;-1.30;91.88
78800;BME280;68148;55.328;86.106;2023-11-19T08:34:12;99123.94;;;-1.31;91.90
78800;BME280;68148;55.328;86.106;2023-11-19T08:36:38;99101.84;;;-1.35;94.55
78800;BME280;68148;55.328;86.106;2023-11-19T08:39:04;99150.47;;;-1.17;91.94
78800;BME280;68148;55.328;86.106;2023-11-19T08:41:29;99154.75;;;-1.28;92.49
78800;BME280;68148;55.328;86.106;2023-11-19T08:43:55;99152.41;;;-1.31;94.99
78800;BME280;68148;55.328;86.106;2023-11-19T08:46:21;99170.41;;;-1.29;94.88
78800;BME280;68148;55.328;86.106;2023-11-19T08:48:47;99199.97;;;-1.32;95.72
78800;BME280;68148;55.328;86.106;2023-11-19T08:51:12;99182.78;;;-1.33;95.44
78800;BME280;68148;55.328;86.106;2023-11-19T08:53:38;99219.31;;;-1.47;97.20
78800;BME280;68148;55.328;86.106;2023-11-19T08:56:06;99225.00;;;-1.64;100.00
78800;BME280;68148;55.328;86.106;2023-11-19T08:58:32;99222.53;;;-1.66;100.00
78800;BME280;68148;55.328;86.106;2023-11-19T09:00:58;99215.72;;;-1.67;100.00
78800;BME280;68148;55.328;86.106;2023-11-19T09:03:24;99211.69;;;-1.60;100.00
78800;BME280;68148;55.328;86.106;2023-11-19T09:05:49;99226.25;;;-1.59;97.91
78800;BME280;68148;55.328;86.106;2023-11-19T09:08:15;99236.97;;;-1.63;97.96
78800;BME280;68148;55.328;86.106;2023-11-19T09:10:41;99244.06;;;-1.77;96.57
78800;BME280;68148;55.328;86.106;2023-11-19T09:13:08;99236.56;;;-1.80;94.81
78800;BME280;68148;55.328;86.106;2023-11-19T09:15:34;99276.28;;;-1.81;92.81
78800;BME280;68148;55.328;86.106;2023-11-19T09:18:02;99275.69;;;-1.84;94.17
78800;BME280;68148;55.328;86.106;2023-11-19T09:20:27;99221.03;;;-2.02;94.80
78800;BME280;68148;55.328;86.106;2023-11-19T09:22:53;99313.69;;;-1.96;95.51
78800;BME280;68148;55.328;86.106;2023-11-19T09:25:19;99312.03;;;-1.86;95.88
78800;BME280;68148;55.328;86.106;2023-11-19T09:27:45;99282.06;;;-1.88;95.21
78800;BME280;68148;55.328;86.106;2023-11-19T09:30:11;99320.72;;;-2.09;97.64
78800;BME280;68148;55.328;86.106;2023-11-19T09:32:37;99316.25;;;-2.07;95.18
78800;BME280;68148;55.328;86.106;2023-11-19T09:35:09;99347.13;;;-2.17;96.67
78800;BME280;68148;55.328;86.106;2023-11-19T09:37:40;99361.56;;;-2.14;96.02
78800;BME280;68148;55.328;86.106;2023-11-19T09:40:07;99368.25;;;-2.34;97.60
78800;BME280;68148;55.328;86.106;2023-11-19T09:42:42;99370.63;;;-2.31;97.63
78800;BME280;68148;55.328;86.106;2023-11-19T09:45:13;99390.44;;;-2.32;98.79
78800;BME280;68148;55.328;86.106;2023-11-19T09:47:43;99399.63;;;-2.28;98.62
78800;BME280;68148;55.328;86.106;2023-11-19T09:50:18;99407.22;;;-2.37;100.00
78800;BME280;68148;55.328;86.106;2023-11-19T09:52:45;99416.28;;;-2.32;100.00
78800;BME280;68148;55.328;86.106;2023-11-19T09:55:11;99393.41;;;-2.25;99.16
78800;BME280;68148;55.328;86.106;2023-11-19T09:57:39;99446.38;;;-2.31;96.72
78800;BME280;68148;55.328;86.106;2023-11-19T10:00:07;99461.94;;;-2.43;96.89
78800;BME280;68148;55.328;86.106;2023-11-19T10:02:35;99459.72;;;-2.37;96.10
78800;BME280;68148;55.328;86.106;2023-11-19T10:05:06;99463.94;;;-2.36;97.27
78800;BME280;68148;55.328;86.106;2023-11-19T10:07:34;99492.94;;;-2.19;94.87
78800;BME280;68148;55.328;86.106;2023-11-19T10:10:03;99508.50;;;-2.32;92.26
78800;BME280;68148;55.328;86.106;2023-11-19T10:12:30;99500.13;;;-2.60;94.45
78800;BME280;68148;55.328;86.106;2023-11-19T10:14:58;99518.97;;;-2.70;94.27
78800;BME280;68148;55.328;86.106;2023-11-19T10:17:35;99499.97;;;-2.69;95.01
78800;BME280;68148;55.328;86.106;2023-11-19T10:20:01;99510.59;;;-2.61;94.24
78800;BME280;68148;55.328;86.106;2023-11-19T10:22:39;99521.97;;;-2.77;94.71
78800;BME280;68148;55.328;86.106;2023-11-19T10:25:21;99546.38;;;-2.81;95.32
78800;BME280;68148;55.328;86.106;2023-11-19T10:27:53;99570.31;;;-2.91;95.63
78800;BME280;68148;55.328;86.106;2023-11-19T10:30:25;99572.31;;;-2.82;95.55
78800;BME280;68148;55.328;86.106;2023-11-19T10:33:34;99567.47;;;-2.87;95.74
78800;BME280;68148;55.328;86.106;2023-11-19T10:36:07;99545.56;;;-2.94;95.98
78800;BME280;68148;55.328;86.106;2023-11-19T10:38:34;99561.56;;;-2.89;96.44
78800;BME280;68148;55.328;86.106;2023-11-19T10:41:02;99590.38;;;-2.82;96.22
78800;BME280;68148;55.328;86.106;2023-11-19T10:43:28;99590.28;;;-2.81;96.84
78800;BME280;68148;55.328;86.106;2023-11-19T10:46:11;99596.25;;;-2.93;96.73
78800;BME280;68148;55.328;86.106;2023-11-19T10:48:38;99611.44;;;-2.88;97.17
78800;BME280;68148;55.328;86.106;2023-11-19T10:51:06;99625.78;;;-2.97;96.03
78800;BME280;68148;55.328;86.106;2023-11-19T10:53:37;99628.88;;;-2.92;97.20
78800;BME280;68148;55.328;86.106;2023-11-19T10:56:06;99627.56;;;-2.85;97.24
78800;BME280;68148;55.328;86.106;2023-11-19T10:58:32;99623.34;;;-2.86;95.88
78800;BME280;68148;55.328;86.106;2023-11-19T11:01:02;99662.16;;;-2.87;96.62
78800;BME280;68148;55.328;86.106;2023-11-19T11:03:33;99664.84;;;-2.89;97.04
78800;BME280;68148;55.328;86.106;2023-11-19T11:06:05;99668.34;;;-3.03;97.12
78800;BME280;68148;55.328;86.106;2023-11-19T11:08:31;99672.44;;;-3.13;97.51
78800;BME280;68148;55.328;86.106;2023-11-19T11:11:02;99660.91;;;-3.07;98.44
78800;BME280;68148;55.328;86.106;2023-11-19T11:13:29;99673.28;;;-3.12;95.66
78800;BME280;68148;55.328;86.106;2023-11-19T11:15:56;99693.34;;;-3.03;97.27
78800;BME280;68148;55.328;86.106;2023-11-19T11:18:22;99694.78;;;-3.12;96.48
78800;BME280;68148;55.328;86.106;2023-11-19T11:20:49;99707.22;;;-3.18;97.72
78800;BME280;68148;55.328;86.106;2023-11-19T11:31:52;99741.41;;;-3.15;97.94
78800;BME280;68148;55.328;86.106;2023-11-19T11:34:39;99751.28;;;-3.21;98.65
78800;BME280;68148;55.328;86.106;2023-11-19T11:39:36;99763.34;;;-3.08;97.72
78800;BME280;68148;55.328;86.106;2023-11-19T11:44:59;99782.38;;;-3.23;97.89
78800;BME280;68148;55.328;86.106;2023-11-19T11:47:26;99780.50;;;-3.34;99.17
78800;BME280;68148;55.328;86.106;2023-11-19T11:49:52;99791.72;;;-3.35;99.63
78800;BME280;68148;55.328;86.106;2023-11-19T11:52:18;99787.81;;;-3.28;100.00
78800;BME280;68148;55.328;86.106;2023-11-19T11:54:44;99805.50;;;-3.21;99.60
78800;BME280;68148;55.328;86.106;2023-11-19T11:57:12;99797.31;;;-3.28;99.96
78800;BME280;68148;55.328;86.106;2023-11-19T12:02:12;99813.97;;;-3.19;100.00
78800;BME280;68148;55.328;86.106;2023-11-19T12:04:40;99820.06;;;-3.20;97.97
78800;BME280;68148;55.328;86.106;2023-11-19T12:07:07;99828.28;;;-3.28;99.88
78800;BME280;68148;55.328;86.106;2023-11-19T12:09:33;99836.22;;;-3.31;100.00
78800;BME280;68148;55.328;86.106;2023-11-19T12:22:28;99869.44;;;-3.54;96.02
78800;BME280;68148;55.328;86.106;2023-11-19T12:24:55;99857.19;;;-3.79;99.60
78800;BME280;68148;55.328;86.106;2023-11-19T12:27:21;99879.00;;;-3.84;97.53
78800;BME280;68148;55.328;86.106;2023-11-19T12:29:47;99877.34;;;-3.71;97.13
78800;BME280;68148;55.328;86.106;2023-11-19T12:32:13;99899.81;;;-3.73;92.48
78800;BME280;68148;55.328;86.106;2023-11-19T12:34:39;99891.06;;;-3.70;90.33
78800;BME280;68148;55.328;86.106;2023-11-19T12:37:10;99891.81;;;-3.97;89.43
78800;BME280;68148;55.328;86.106;2023-11-19T12:39:36;99835.72;;;-4.08;89.16
78800;BME280;68148;55.328;86.106;2023-11-19T12:42:02;99909.69;;;-4.24;89.65
78800;BME280;68148;55.328;86.106;2023-11-19T12:44:28;99928.47;;;-4.22;88.87
78800;BME280;68148;55.328;86.106;2023-11-19T12:47:05;99892.00;;;-4.30;88.36
78800;BME280;68148;55.328;86.106;2023-11-19T12:49:32;99908.50;;;-4.18;88.72
78800;BME280;68148;55.328;86.106;2023-11-19T12:51:59;99929.28;;;-4.21;87.78
78800;BME280;68148;55.328;86.106;2023-11-19T12:54:37;99932.66;;;-4.35;86.91
78800;BME280;68148;55.328;86.106;2023-11-19T12:57:05;99959.50;;;-4.23;85.83
78800;BME280;68148;55.328;86.106;2023-11-19T12:59:31;99935.94;;;-4.17;85.73
78800;BME280;68148;55.328;86.106;2023-11-19T13:01:58;99968.16;;;-4.40;86.20
78800;BME280;68148;55.328;86.106;2023-11-19T13:04:30;99962.41;;;-4.30;85.85
78800;BME280;68148;55.328;86.106;2023-11-19T13:06:58;99931.06;;;-4.38;85.93
78800;BME280;68148;55.328;86.106;2023-11-19T13:09:26;99944.88;;;-4.39;86.33
78800;BME280;68148;55.328;86.106;2023-11-19T13:11:55;99950.78;;;-4.37;85.90
78800;BME280;68148;55.328;86.106;2023-11-19T13:14:22;99979.59;;;-4.30;85.85
78800;BME280;68148;55.328;86.106;2023-11-19T13:16:51;99976.44;;;-4.19;84.98
78800;BME280;68148;55.328;86.106;2023-11-19T13:19:17;99996.53;;;-4.26;85.30
78800;BME280;68148;55.328;86.106;2023-11-19T13:21:43;99985.53;;;-4.44;85.51
78800;BME280;68148;55.328;86.106;2023-11-19T13:24:09;100007.78;;;-4.43;85.32
78800;BME280;68148;55.328;86.106;2023-11-19T13:26:37;100028.06;;;-4.53;85.90